TAF and METAR

Could not understand the following METAR

YLRE 230900Z AUTO 14007KT 9999 // NCD 22/08 Q1021
No TAF available for Longreach Airport
Longreach Airport in Australia at 193m

Latest 5 airports